Time;durP1;ratioP1;P1;durP2;ratioP2;P2;SDS_P1;SDS_P2;PMS_P1;PMS_P2;Temp;Humidity;BMP_temperature;BMP_pressure;BME280_temperature;BME280_humidity;BME280_pressure;Samples;Min_cycle;Max_cycle;Signal;HPM_P1;HPM_P2
2023/03/07 00:00:02;;;;;;;;;;;;;;;;;;1872891;29;7018;-65
2023/03/07 00:01:00;;;;;;;;;;;;;;;;;;1874601;29;8028;-62
2023/03/07 00:01:57;;;;;;;;;;;;;;;;;;1873814;29;7402;-65
2023/03/07 00:02:55;;;;;;;;;;;;;;;;;;1869089;29;7043;-65
2023/03/07 00:03:53;;;;;;;;;;;;;;;;;;1870026;29;7014;-65
2023/03/07 00:04:50;;;;;;;;;;;;;;;;;;1872276;29;7046;-64
2023/03/07 00:05:48;;;;;;;;;;;;;;;;;;1873992;29;7026;-65
2023/03/07 00:06:45;;;;;;;;;;;;;;;;;;1870741;28;7093;-65
2023/03/07 00:07:42;;;;;;;;;;;;;;;;;;1867611;29;7002;-65
2023/03/07 00:08:40;;;;;;;;;;;;;;;;;;1874201;28;7006;-64
2023/03/07 00:09:37;;;;;;;;;;;;;;;;;;1875125;28;7046;-64
2023/03/07 00:10:34;;;;;;;;;;;;;;;;;;1874019;28;7017;-65
2023/03/07 00:11:32;;;;;;;;;;;;;;;;;;1870571;28;7097;-65
2023/03/07 00:12:29;;;;;;;;;;;;;;;;;;1871360;28;7038;-65
2023/03/07 00:13:29;;;;;;;;;;;;;;;;;;1872195;28;7050;-65
2023/03/07 00:14:26;;;;;;;;;;;;;;;;;;1868340;29;8116;-65
2023/03/07 00:15:23;;;;;;;;;;;;;;;;;;1868402;29;7113;-65
2023/03/07 00:16:22;;;;;;;;;;;;;;;;;;1870049;28;7046;-65
2023/03/07 00:17:19;;;;;;;;;;;;;;;;;;1875380;28;7014;-64
2023/03/07 00:18:16;;;;;;;;;;;;;;;;;;1875734;28;7014;-65
2023/03/07 00:19:14;;;;;;;;;;;;;;;;;;1875764;28;7025;-64
2023/03/07 00:20:13;;;;;;;;;;;;;;;;;;1873971;28;7093;-65
2023/03/07 00:21:12;;;;;;;;;;;;;;;;;;1873073;28;7010;-65
2023/03/07 00:22:10;;;;;;;;;;;;;;;;;;1874825;28;7014;-65
2023/03/07 00:23:10;;;;;;;;;;;;;;;;;;1866982;29;7010;-64
2023/03/07 00:24:08;;;;;;;;;;;;;;;;;;1868316;29;7118;-65
2023/03/07 00:25:06;;;;;;;;;;;;;;;;;;1860439;29;7116;-65
2023/03/07 00:26:06;;;;;;;;;;;;;;;;;;1860573;29;7145;-65
2023/03/07 00:27:03;;;;;;;;;;;;;;;;;;1867805;29;7006;-64
2023/03/07 00:28:00;;;;;;;;;;;;;;;;;;1868940;29;7097;-65
2023/03/07 00:28:58;;;;;;;;;;;;;;;;;;1868672;29;7089;-65
2023/03/07 00:29:55;;;;;;;;;;;;;;;;;;1867699;29;7101;-64
2023/03/07 00:30:53;;;;;;;;;;;;;;;;;;1868870;29;7010;-65
2023/03/07 00:31:50;;;;;;;;;;;;;;;;;;1868510;29;7025;-65
2023/03/07 00:32:47;;;;;;;;;;;;;;;;;;1868638;29;7014;-64
2023/03/07 00:33:45;;;;;;;;;;;;;;;;;;1868697;29;7025;-64
2023/03/07 00:34:43;;;;;;;;;;;;;;;;;;1868737;29;7026;-65
2023/03/07 00:35:40;;;;;;;;;;;;;;;;;;1868707;29;7128;-65
2023/03/07 00:36:37;;;;;;;;;;;;;;;;;;1868418;29;7014;-64
2023/03/07 00:37:35;;;;;;;;;;;;;;;;;;1868601;29;7133;-65
2023/03/07 00:38:33;;;;;;;;;;;;;;;;;;1868310;29;7014;-64
2023/03/07 00:39:30;;;;;;;;;;;;;;;;;;1868287;29;7185;-64
2023/03/07 00:40:28;;;;;;;;;;;;;;;;;;1867125;29;7117;-64
2023/03/07 00:41:26;;;;;;;;;;;;;;;;;;1868865;29;7297;-64
2023/03/07 00:42:24;;;;;;;;;;;;;;;;;;1867804;29;7021;-65
2023/03/07 00:43:21;;;;;;;;;;;;;;;;;;1867310;29;7938;-65
2023/03/07 00:44:19;;;;;;;;;;;;;;;;;;1868020;29;7158;-65
2023/03/07 00:45:16;;;;;;;;;;;;;;;;;;1866760;29;7010;-65
2023/03/07 00:46:15;;;;;;;;;;;;;;;;;;1868312;29;7124;-65
2023/03/07 00:47:12;;;;;;;;;;;;;;;;;;1867847;29;7153;-65
2023/03/07 00:48:10;;;;;;;;;;;;;;;;;;1868554;29;7301;-65
2023/03/07 00:49:07;;;;;;;;;;;;;;;;;;1868441;29;7006;-64
2023/03/07 00:50:05;;;;;;;;;;;;;;;;;;1868104;29;7050;-64
2023/03/07 00:51:03;;;;;;;;;;;;;;;;;;1868406;29;7146;-64
2023/03/07 00:52:01;;;;;;;;;;;;;;;;;;1867472;29;7010;-65
2023/03/07 00:52:58;;;;;;;;;;;;;;;;;;1867892;29;7046;-65
2023/03/07 00:53:55;;;;;;;;;;;;;;;;;;1868608;29;7322;-65
2023/03/07 00:54:52;;;;;;;;;;;;;;;;;;1868545;29;7116;-65
2023/03/07 00:55:57;;;;;;;;;;;;;;;;;;1868080;29;7014;-64
2023/03/07 00:56:54;;;;;;;;;;;;;;;;;;1867764;29;7010;-65
2023/03/07 00:57:52;;;;;;;;;;;;;;;;;;1867974;29;7042;-65
2023/03/07 00:58:50;;;;;;;;;;;;;;;;;;1868113;29;8029;-64
2023/03/07 00:59:47;;;;;;;;;;;;;;;;;;1868106;29;7010;-65
2023/03/07 01:00:44;;;;;;;;;;;;;;;;;;1868414;29;7014;-65
2023/03/07 01:01:42;;;;;;;;;;;;;;;;;;1868124;29;8096;-65
2023/03/07 01:02:39;;;;;;;;;;;;;;;;;;1867116;29;7125;-65
2023/03/07 01:03:37;;;;;;;;;;;;;;;;;;1868113;29;7017;-65
2023/03/07 01:04:34;;;;;;;;;;;;;;;;;;1867910;29;7034;-65
2023/03/07 01:05:37;;;;;;;;;;;;;;;;;;1868396;29;7010;-65
2023/03/07 01:06:34;;;;;;;;;;;;;;;;;;1868362;29;7005;-65
2023/03/07 01:07:32;;;;;;;;;;;;;;;;;;1868160;29;7010;-65
2023/03/07 01:08:29;;;;;;;;;;;;;;;;;;1868183;29;7018;-65
2023/03/07 01:09:26;;;;;;;;;;;;;;;;;;1868324;29;7138;-65
2023/03/07 01:10:25;;;;;;;;;;;;;;;;;;1868205;29;7022;-65
2023/03/07 01:11:23;;;;;;;;;;;;;;;;;;1860293;29;7006;-64
2023/03/07 01:12:21;;;;;;;;;;;;;;;;;;1860488;29;7089;-64
2023/03/07 01:13:18;;;;;;;;;;;;;;;;;;1866457;29;7089;-65
2023/03/07 01:14:16;;;;;;;;;;;;;;;;;;1867659;29;7042;-65
2023/03/07 01:15:13;;;;;;;;;;;;;;;;;;1867713;29;7005;-65
2023/03/07 01:16:13;;;;;;;;;;;;;;;;;;1867741;29;7043;-65
2023/03/07 01:17:11;;;;;;;;;;;;;;;;;;1867882;29;7034;-65
2023/03/07 01:18:09;;;;;;;;;;;;;;;;;;1868133;29;7277;-65
2023/03/07 01:19:08;;;;;;;;;;;;;;;;;;1868354;29;7006;-65
2023/03/07 01:20:06;;;;;;;;;;;;;;;;;;1867745;29;7006;-66
2023/03/07 01:21:13;;;;;;;;;;;;;;;;;;1867453;29;7009;-65
2023/03/07 01:22:11;;;;;;;;;;;;;;;;;;1867654;29;7022;-65
2023/03/07 01:23:08;;;;;;;;;;;;;;;;;;1874787;28;7077;-64
2023/03/07 01:24:06;;;;;;;;;;;;;;;;;;1875301;28;7018;-64
2023/03/07 01:25:04;;;;;;;;;;;;;;;;;;1875264;28;7379;-64
2023/03/07 01:26:01;;;;;;;;;;;;;;;;;;1874495;28;7136;-65
2023/03/07 01:26:59;;;;;;;;;;;;;;;;;;1875944;28;7097;-65
2023/03/07 01:27:56;;;;;;;;;;;;;;;;;;1874761;28;7010;-65
2023/03/07 01:28:56;;;;;;;;;;;;;;;;;;1874938;28;7033;-65
2023/03/07 01:29:53;;;;;;;;;;;;;;;;;;1874539;28;7014;-65
2023/03/07 01:30:57;;;;;;;;;;;;;;;;;;1875057;28;7118;-65
2023/03/07 01:31:54;;;;;;;;;;;;;;;;;;1874788;28;7046;-64
2023/03/07 01:32:56;;;;;;;;;;;;;;;;;;1875667;28;7010;-65
2023/03/07 01:33:53;;;;;;;;;;;;;;;;;;1874448;28;7132;-65
2023/03/07 01:34:50;;;;;;;;;;;;;;;;;;1874582;28;8010;-65
2023/03/07 01:35:48;;;;;;;;;;;;;;;;;;1874206;28;7101;-62
2023/03/07 01:36:45;;;;;;;;;;;;;;;;;;1874837;28;7092;-65
2023/03/07 01:37:42;;;;;;;;;;;;;;;;;;1874520;28;7043;-65
2023/03/07 01:38:40;;;;;;;;;;;;;;;;;;1875362;28;8142;-65
2023/03/07 01:39:37;;;;;;;;;;;;;;;;;;1874764;28;7014;-65
2023/03/07 01:40:37;;;;;;;;;;;;;;;;;;1875085;28;7013;-65
2023/03/07 01:41:36;;;;;;;;;;;;;;;;;;1873954;28;7034;-65
2023/03/07 01:42:33;;;;;;;;;;;;;;;;;;1874046;28;8059;-65
2023/03/07 01:43:32;;;;;;;;;;;;;;;;;;1874065;28;7097;-65
2023/03/07 01:44:31;;;;;;;;;;;;;;;;;;1873366;28;7093;-65
2023/03/07 01:45:34;;;;;;;;;;;;;;;;;;1874630;28;8045;-65
2023/03/07 01:46:41;;;;;;;;;;;;;;;;;;1875379;28;7046;-65
2023/03/07 01:47:39;;;;;;;;;;;;;;;;;;1875427;28;7105;-65
2023/03/07 01:48:36;;;;;;;;;;;;;;;;;;1875563;28;7010;-65
2023/03/07 01:49:39;;;;;;;;;;;;;;;;;;1875276;28;8132;-64
2023/03/07 01:50:38;;;;;;;;;;;;;;;;;;1875059;28;7201;-65
2023/03/07 01:51:38;;;;;;;;;;;;;;;;;;1874786;28;7113;-65
2023/03/07 01:52:39;;;;;;;;;;;;;;;;;;1874748;28;7100;-65
2023/03/07 01:53:36;;;;;;;;;;;;;;;;;;1874482;28;7010;-65
2023/03/07 01:54:37;;;;;;;;;;;;;;;;;;1874922;28;7045;-65
2023/03/07 01:55:36;;;;;;;;;;;;;;;;;;1874182;28;7014;-65
2023/03/07 01:56:35;;;;;;;;;;;;;;;;;;1874616;28;7101;-65
2023/03/07 01:57:36;;;;;;;;;;;;;;;;;;1874619;28;7062;-64
2023/03/07 01:58:35;;;;;;;;;;;;;;;;;;1875366;28;7520;-65
2023/03/07 01:59:35;;;;;;;;;;;;;;;;;;1875447;28;7006;-65
2023/03/07 02:00:35;;;;;;;;;;;;;;;;;;1874000;28;7009;-64
2023/03/07 02:01:32;;;;;;;;;;;;;;;;;;1874992;28;7010;-65
2023/03/07 02:02:30;;;;;;;;;;;;;;;;;;1874028;28;7009;-65
2023/03/07 02:03:34;;;;;;;;;;;;;;;;;;1874848;28;7006;-65
2023/03/07 02:04:53;;;;;;;;;;;;;;;;;;1873828;28;7018;-65
2023/03/07 02:06:04;;;;;;;;;;;;;;;;;;1874783;28;8040;-65
2023/03/07 02:07:02;;;;;;;;;;;;;;;;;;1875258;28;7336;-64
2023/03/07 02:08:01;;;;;;;;;;;;;;;;;;1875099;28;7101;-65
2023/03/07 02:08:59;;;;;;;;;;;;;;;;;;1873785;28;7097;-65
2023/03/07 02:09:57;;;;;;;;;;;;;;;;;;1874119;28;9098;-65
2023/03/07 02:10:54;;;;;;;;;;;;;;;;;;1874404;28;7117;-65
2023/03/07 02:11:52;;;;;;;;;;;;;;;;;;1875393;28;7093;-65
2023/03/07 02:12:50;;;;;;;;;;;;;;;;;;1874581;28;7014;-65
2023/03/07 02:13:48;;;;;;;;;;;;;;;;;;1874580;28;7097;-65
2023/03/07 02:14:47;;;;;;;;;;;;;;;;;;1874838;28;7117;-65
2023/03/07 02:15:46;;;;;;;;;;;;;;;;;;1874562;28;7046;-64
2023/03/07 02:16:44;;;;;;;;;;;;;;;;;;1874441;28;7100;-64
2023/03/07 02:17:42;;;;;;;;;;;;;;;;;;1881253;28;7010;-64
2023/03/07 02:18:44;;;;;;;;;;;;;;;;;;1878742;28;8090;-64
2023/03/07 02:19:42;;;;;;;;;;;;;;;;;;1874946;28;7046;-65
2023/03/07 02:20:58;;;;;;;;;;;;;;;;;;1874588;28;7030;-64
2023/03/07 02:22:09;;;;;;;;;;;;;;;;;;1875093;28;7113;-64
2023/03/07 02:23:12;;;;;;;;;;;;;;;;;;1874804;28;7006;-64
2023/03/07 02:24:29;;;;;;;;;;;;;;;;;;1875117;28;7387;-65
2023/03/07 02:25:41;;;;;;;;;;;;;;;;;;1874213;28;7262;-66
2023/03/07 02:26:41;;;;;;;;;;;;;;;;;;1874024;28;7006;-65
2023/03/07 02:27:40;;;;;;;;;;;;;;;;;;1874244;28;7042;-64
2023/03/07 02:28:38;;;;;;;;;;;;;;;;;;1874468;28;7006;-65
2023/03/07 02:29:36;;;;;;;;;;;;;;;;;;1874033;28;8064;-65
2023/03/07 02:30:35;;;;;;;;;;;;;;;;;;1874197;28;7096;-65
2023/03/07 02:31:33;;;;;;;;;;;;;;;;;;1874524;28;7106;-65
2023/03/07 02:32:30;;;;;;;;;;;;;;;;;;1873366;28;7034;-65
2023/03/07 02:33:28;;;;;;;;;;;;;;;;;;1874688;28;7093;-65
2023/03/07 02:34:27;;;;;;;;;;;;;;;;;;1873471;28;7113;-65
2023/03/07 02:35:25;;;;;;;;;;;;;;;;;;1874750;28;7096;-65
2023/03/07 02:36:27;;;;;;;;;;;;;;;;;;1874681;28;7088;-65
2023/03/07 02:37:30;;;;;;;;;;;;;;;;;;1874476;28;7022;-65
2023/03/07 02:38:31;;;;;;;;;;;;;;;;;;1874343;28;7093;-65
2023/03/07 02:39:29;;;;;;;;;;;;;;;;;;1875077;28;7038;-65
2023/03/07 02:40:30;;;;;;;;;;;;;;;;;;1874381;28;7046;-65
2023/03/07 02:41:30;;;;;;;;;;;;;;;;;;1875104;28;7009;-65
2023/03/07 02:42:30;;;;;;;;;;;;;;;;;;1874554;28;7332;-65
2023/03/07 02:43:28;;;;;;;;;;;;;;;;;;1874577;28;7363;-65
2023/03/07 02:44:25;;;;;;;;;;;;;;;;;;1874441;28;7010;-64
2023/03/07 02:45:23;;;;;;;;;;;;;;;;;;1875303;28;8060;-65
2023/03/07 02:46:20;;;;;;;;;;;;;;;;;;1874093;28;7895;-65
2023/03/07 02:47:17;;;;;;;;;;;;;;;;;;1874103;28;7120;-65
2023/03/07 02:48:15;;;;;;;;;;;;;;;;;;1874627;28;7046;-65
2023/03/07 02:49:13;;;;;;;;;;;;;;;;;;1874465;28;7006;-65
2023/03/07 02:50:11;;;;;;;;;;;;;;;;;;1874592;28;7097;-64
2023/03/07 02:51:09;;;;;;;;;;;;;;;;;;1874479;28;7006;-64
2023/03/07 02:52:06;;;;;;;;;;;;;;;;;;1874880;28;7010;-65
2023/03/07 02:53:04;;;;;;;;;;;;;;;;;;1874187;28;7118;-65
2023/03/07 02:54:01;;;;;;;;;;;;;;;;;;1874581;28;7093;-65
2023/03/07 02:54:58;;;;;;;;;;;;;;;;;;1874458;28;7010;-65
2023/03/07 02:55:56;;;;;;;;;;;;;;;;;;1874625;28;7006;-65
2023/03/07 02:56:53;;;;;;;;;;;;;;;;;;1874128;28;7022;-65
2023/03/07 02:57:52;;;;;;;;;;;;;;;;;;1874695;28;7014;-65
2023/03/07 02:58:49;;;;;;;;;;;;;;;;;;1874681;28;8061;-65
2023/03/07 02:59:47;;;;;;;;;;;;;;;;;;1874873;28;7058;-65
2023/03/07 03:00:44;;;;;;;;;;;;;;;;;;1874631;28;7101;-65
2023/03/07 03:01:42;;;;;;;;;;;;;;;;;;1874554;28;7009;-65
2023/03/07 03:02:39;;;;;;;;;;;;;;;;;;1873573;29;7018;-65
2023/03/07 03:03:36;;;;;;;;;;;;;;;;;;1874803;28;7113;-64
2023/03/07 03:04:34;;;;;;;;;;;;;;;;;;1874007;29;7010;-65
2023/03/07 03:05:31;;;;;;;;;;;;;;;;;;1875002;28;7010;-64
2023/03/07 03:06:28;;;;;;;;;;;;;;;;;;1874507;29;7043;-65
2023/03/07 03:07:26;;;;;;;;;;;;;;;;;;1874109;28;7117;-65
2023/03/07 03:08:23;;;;;;;;;;;;;;;;;;1874266;28;8028;-65
2023/03/07 03:09:20;;;;;;;;;;;;;;;;;;1874613;28;7089;-65
2023/03/07 03:10:18;;;;;;;;;;;;;;;;;;1874448;28;7153;-65
2023/03/07 03:11:15;;;;;;;;;;;;;;;;;;1874494;28;7010;-65
2023/03/07 03:12:13;;;;;;;;;;;;;;;;;;1874803;28;7046;-65
2023/03/07 03:13:10;;;;;;;;;;;;;;;;;;1874979;28;7161;-65
2023/03/07 03:14:07;;;;;;;;;;;;;;;;;;1873341;29;8081;-65
2023/03/07 03:15:05;;;;;;;;;;;;;;;;;;1875184;29;7033;-65
2023/03/07 03:16:03;;;;;;;;;;;;;;;;;;1873307;29;7014;-64
2023/03/07 03:17:00;;;;;;;;;;;;;;;;;;1874780;28;7055;-65
2023/03/07 03:17:57;;;;;;;;;;;;;;;;;;1872814;29;8156;-65
2023/03/07 03:18:55;;;;;;;;;;;;;;;;;;1874801;28;7128;-64
2023/03/07 03:19:52;;;;;;;;;;;;;;;;;;1874273;29;8014;-65
2023/03/07 03:20:50;;;;;;;;;;;;;;;;;;1874609;28;8036;-64
2023/03/07 03:21:48;;;;;;;;;;;;;;;;;;1874041;28;7118;-65
2023/03/07 03:22:45;;;;;;;;;;;;;;;;;;1871493;28;7025;-65
2023/03/07 03:23:42;;;;;;;;;;;;;;;;;;1870275;29;7097;-65
2023/03/07 03:24:41;;;;;;;;;;;;;;;;;;1871240;29;7093;-65
2023/03/07 03:25:38;;;;;;;;;;;;;;;;;;1870645;29;8116;-64
2023/03/07 03:26:36;;;;;;;;;;;;;;;;;;1874105;29;7006;-65
2023/03/07 03:27:35;;;;;;;;;;;;;;;;;;1872341;29;7013;-65
2023/03/07 03:28:35;;;;;;;;;;;;;;;;;;1874381;29;7118;-65
2023/03/07 03:29:33;;;;;;;;;;;;;;;;;;1858531;29;7014;-64
2023/03/07 03:30:34;;;;;;;;;;;;;;;;;;1861180;29;7314;-65
2023/03/07 03:31:32;;;;;;;;;;;;;;;;;;1867594;29;8080;-65
2023/03/07 03:32:29;;;;;;;;;;;;;;;;;;1867211;29;7046;-65
2023/03/07 03:33:30;;;;;;;;;;;;;;;;;;1870591;29;7096;-64
2023/03/07 03:34:28;;;;;;;;;;;;;;;;;;1871975;29;8120;-65
2023/03/07 03:35:25;;;;;;;;;;;;;;;;;;1867132;29;7010;-65
2023/03/07 03:36:24;;;;;;;;;;;;;;;;;;1869927;29;7110;-65
2023/03/07 03:37:22;;;;;;;;;;;;;;;;;;1872530;29;7006;-65
2023/03/07 03:38:19;;;;;;;;;;;;;;;;;;1866960;29;7383;-65
2023/03/07 03:39:16;;;;;;;;;;;;;;;;;;1869452;29;7089;-65
2023/03/07 03:40:16;;;;;;;;;;;;;;;;;;1867960;29;7081;-65
2023/03/07 03:41:16;;;;;;;;;;;;;;;;;;1874913;29;7010;-65
2023/03/07 03:42:14;;;;;;;;;;;;;;;;;;1872675;28;7144;-65
2023/03/07 03:43:11;;;;;;;;;;;;;;;;;;1868306;29;7006;-65
2023/03/07 03:44:09;;;;;;;;;;;;;;;;;;1868318;28;7129;-65
2023/03/07 03:45:07;;;;;;;;;;;;;;;;;;1874298;28;7006;-64
2023/03/07 03:46:05;;;;;;;;;;;;;;;;;;1872281;28;7303;-65
2023/03/07 03:47:03;;;;;;;;;;;;;;;;;;1873280;28;7097;-65
2023/03/07 03:48:00;;;;;;;;;;;;;;;;;;1871743;28;7126;-65
2023/03/07 03:48:58;;;;;;;;;;;;;;;;;;1874172;28;7010;-65
2023/03/07 03:49:55;;;;;;;;;;;;;;;;;;1874888;28;7002;-65
2023/03/07 03:51:03;;;;;;;;;;;;;;;;;;1875090;28;7006;-65
2023/03/07 03:52:01;;;;;;;;;;;;;;;;;;1875465;28;7337;-65
2023/03/07 03:52:59;;;;;;;;;;;;;;;;;;1875329;28;8040;-65
2023/03/07 03:53:59;;;;;;;;;;;;;;;;;;1875755;28;7329;-65
2023/03/07 03:54:56;;;;;;;;;;;;;;;;;;1869782;28;7002;-65
2023/03/07 03:55:59;;;;;;;;;;;;;;;;;;1872813;28;7034;-65
2023/03/07 03:56:57;;;;;;;;;;;;;;;;;;1875214;28;8040;-65
2023/03/07 03:57:54;;;;;;;;;;;;;;;;;;1875670;28;7006;-65
2023/03/07 03:58:54;;;;;;;;;;;;;;;;;;1873475;28;7009;-65
2023/03/07 03:59:51;;;;;;;;;;;;;;;;;;1874100;28;7010;-65
2023/03/07 04:00:48;;;;;;;;;;;;;;;;;;1867960;28;7006;-64
2023/03/07 04:01:46;;;;;;;;;;;;;;;;;;1873091;28;7011;-64
2023/03/07 04:02:46;;;;;;;;;;;;;;;;;;1869638;28;7010;-64
2023/03/07 04:03:45;;;;;;;;;;;;;;;;;;1870698;28;7002;-65
2023/03/07 04:04:43;;;;;;;;;;;;;;;;;;1869323;28;8831;-64
2023/03/07 04:05:40;;;;;;;;;;;;;;;;;;1868350;28;7010;-65
2023/03/07 04:06:37;;;;;;;;;;;;;;;;;;1869518;28;8029;-65
2023/03/07 04:07:35;;;;;;;;;;;;;;;;;;1874946;28;7110;-65
2023/03/07 04:08:33;;;;;;;;;;;;;;;;;;1866434;28;7089;-64
2023/03/07 04:09:31;;;;;;;;;;;;;;;;;;1870865;28;7010;-65
2023/03/07 04:10:28;;;;;;;;;;;;;;;;;;1868657;28;7050;-65
2023/03/07 04:11:26;;;;;;;;;;;;;;;;;;1873898;28;7006;-65
2023/03/07 04:12:23;;;;;;;;;;;;;;;;;;1873517;28;7043;-66
2023/03/07 04:13:20;;;;;;;;;;;;;;;;;;1874909;28;7117;-64
2023/03/07 04:14:18;;;;;;;;;;;;;;;;;;1868543;29;7109;-65
2023/03/07 04:15:15;;;;;;;;;;;;;;;;;;1868148;29;7033;-65
2023/03/07 04:16:13;;;;;;;;;;;;;;;;;;1868021;29;7323;-65
2023/03/07 04:17:11;;;;;;;;;;;;;;;;;;1872245;28;7022;-65
2023/03/07 04:18:08;;;;;;;;;;;;;;;;;;1876168;28;7030;-65
2023/03/07 04:19:07;;;;;;;;;;;;;;;;;;1873056;28;7466;-65
2023/03/07 04:20:05;;;;;;;;;;;;;;;;;;1868054;29;7002;-65
2023/03/07 04:21:04;;;;;;;;;;;;;;;;;;1871856;28;7010;-65
2023/03/07 04:22:01;;;;;;;;;;;;;;;;;;1872765;28;7051;-65
2023/03/07 04:22:59;;;;;;;;;;;;;;;;;;1874264;28;7018;-65
2023/03/07 04:23:57;;;;;;;;;;;;;;;;;;1875112;28;7097;-65
2023/03/07 04:24:54;;;;;;;;;;;;;;;;;;1875615;28;7050;-65
2023/03/07 04:25:54;;;;;;;;;;;;;;;;;;1875288;28;7010;-65
2023/03/07 04:26:51;;;;;;;;;;;;;;;;;;1875300;28;7014;-65
2023/03/07 04:27:49;;;;;;;;;;;;;;;;;;1875489;28;7034;-65
2023/03/07 04:28:48;;;;;;;;;;;;;;;;;;1875267;28;7006;-64
2023/03/07 04:29:45;;;;;;;;;;;;;;;;;;1875385;28;7043;-65
2023/03/07 04:30:43;;;;;;;;;;;;;;;;;;1875419;28;7014;-65
2023/03/07 04:31:40;;;;;;;;;;;;;;;;;;1875031;28;7006;-65
2023/03/07 04:32:38;;;;;;;;;;;;;;;;;;1875859;28;7097;-64
2023/03/07 04:33:35;;;;;;;;;;;;;;;;;;1875635;28;7042;-65
2023/03/07 04:34:33;;;;;;;;;;;;;;;;;;1874263;28;7009;-65
2023/03/07 04:35:30;;;;;;;;;;;;;;;;;;1875329;28;7010;-65
2023/03/07 04:36:27;;;;;;;;;;;;;;;;;;1875728;28;7043;-65
2023/03/07 04:37:25;;;;;;;;;;;;;;;;;;1874659;28;7120;-65
2023/03/07 04:38:22;;;;;;;;;;;;;;;;;;1875798;28;7544;-65
2023/03/07 04:39:19;;;;;;;;;;;;;;;;;;1876288;28;7017;-65
2023/03/07 04:40:17;;;;;;;;;;;;;;;;;;1875787;28;7006;-65
2023/03/07 04:41:16;;;;;;;;;;;;;;;;;;1875541;28;7692;-65
2023/03/07 04:42:13;;;;;;;;;;;;;;;;;;1875517;28;7114;-65
2023/03/07 04:43:11;;;;;;;;;;;;;;;;;;1875583;28;7097;-65
2023/03/07 04:44:08;;;;;;;;;;;;;;;;;;1875470;28;7014;-65
2023/03/07 04:45:06;;;;;;;;;;;;;;;;;;1875299;28;7097;-65
2023/03/07 04:46:03;;;;;;;;;;;;;;;;;;1875555;28;7135;-65
2023/03/07 04:47:01;;;;;;;;;;;;;;;;;;1875575;28;7010;-65
2023/03/07 04:47:59;;;;;;;;;;;;;;;;;;1875447;28;7105;-65
2023/03/07 04:48:56;;;;;;;;;;;;;;;;;;1875479;28;7050;-65
2023/03/07 04:49:53;;;;;;;;;;;;;;;;;;1875395;28;7006;-65
2023/03/07 04:50:51;;;;;;;;;;;;;;;;;;1875208;28;7009;-64
2023/03/07 04:51:48;;;;;;;;;;;;;;;;;;1875459;28;7092;-65
2023/03/07 04:52:45;;;;;;;;;;;;;;;;;;1875056;28;7089;-65
2023/03/07 04:53:43;;;;;;;;;;;;;;;;;;1875876;28;7042;-65
2023/03/07 04:54:40;;;;;;;;;;;;;;;;;;1876323;28;7088;-64
2023/03/07 04:55:37;;;;;;;;;;;;;;;;;;1875414;28;7105;-65
2023/03/07 04:56:35;;;;;;;;;;;;;;;;;;1875882;28;7105;-65
2023/03/07 04:57:33;;;;;;;;;;;;;;;;;;1875441;28;7010;-64
2023/03/07 04:58:30;;;;;;;;;;;;;;;;;;1875927;28;7332;-65
2023/03/07 04:59:27;;;;;;;;;;;;;;;;;;1875878;28;7014;-65
2023/03/07 05:00:25;;;;;;;;;;;;;;;;;;1875595;28;7133;-65
2023/03/07 05:01:22;;;;;;;;;;;;;;;;;;1875726;28;7635;-65
2023/03/07 05:02:20;;;;;;;;;;;;;;;;;;1874988;28;7110;-65
2023/03/07 05:03:17;;;;;;;;;;;;;;;;;;1875794;28;8025;-64
2023/03/07 05:04:15;;;;;;;;;;;;;;;;;;1875477;28;8108;-65
2023/03/07 05:05:12;;;;;;;;;;;;;;;;;;1875635;28;7006;-65
2023/03/07 05:06:13;;;;;;;;;;;;;;;;;;1875482;28;7010;-64
2023/03/07 05:07:10;;;;;;;;;;;;;;;;;;1876166;28;7025;-64
2023/03/07 05:08:07;;;;;;;;;;;;;;;;;;1875142;28;7391;-65
2023/03/07 05:09:05;;;;;;;;;;;;;;;;;;1875730;28;7231;-65
2023/03/07 05:10:02;;;;;;;;;;;;;;;;;;1868298;29;7138;-65
2023/03/07 05:11:00;;;;;;;;;;;;;;;;;;1867557;29;7093;-65
2023/03/07 05:11:57;;;;;;;;;;;;;;;;;;1874160;28;7109;-65
2023/03/07 05:12:54;;;;;;;;;;;;;;;;;;1875797;28;7030;-65
2023/03/07 05:13:52;;;;;;;;;;;;;;;;;;1875477;28;7010;-65
2023/03/07 05:14:49;;;;;;;;;;;;;;;;;;1875448;28;7006;-65
2023/03/07 05:15:54;;;;;;;;;;;;;;;;;;1875489;28;7369;-64
2023/03/07 05:16:52;;;;;;;;;;;;;;;;;;1875355;28;7013;-65
2023/03/07 05:17:49;;;;;;;;;;;;;;;;;;1875271;28;7321;-65
2023/03/07 05:18:47;;;;;;;;;;;;;;;;;;1875129;28;7006;-65
2023/03/07 05:19:44;;;;;;;;;;;;;;;;;;1875666;28;7006;-65
2023/03/07 05:20:42;;;;;;;;;;;;;;;;;;1875342;28;7129;-65
2023/03/07 05:21:40;;;;;;;;;;;;;;;;;;1875135;28;7102;-64
2023/03/07 05:22:38;;;;;;;;;;;;;;;;;;1875225;28;7038;-65
2023/03/07 05:23:35;;;;;;;;;;;;;;;;;;1873035;28;7097;-64
2023/03/07 05:24:32;;;;;;;;;;;;;;;;;;1871268;28;8052;-65
2023/03/07 05:25:30;;;;;;;;;;;;;;;;;;1872502;28;7097;-65
2023/03/07 05:26:27;;;;;;;;;;;;;;;;;;1875294;28;7093;-65
2023/03/07 05:27:25;;;;;;;;;;;;;;;;;;1870513;28;7751;-65
2023/03/07 05:28:22;;;;;;;;;;;;;;;;;;1868407;29;7043;-65
2023/03/07 05:29:19;;;;;;;;;;;;;;;;;;1872323;28;7002;-63
2023/03/07 05:30:20;;;;;;;;;;;;;;;;;;1868565;29;6998;-65
2023/03/07 05:31:18;;;;;;;;;;;;;;;;;;1867743;29;7014;-65
2023/03/07 05:32:15;;;;;;;;;;;;;;;;;;1870979;28;8032;-65
2023/03/07 05:33:13;;;;;;;;;;;;;;;;;;1872954;28;7143;-65
2023/03/07 05:34:11;;;;;;;;;;;;;;;;;;1875377;28;8048;-65
2023/03/07 05:35:10;;;;;;;;;;;;;;;;;;1868690;28;7006;-65
2023/03/07 05:36:07;;;;;;;;;;;;;;;;;;1875348;28;7014;-65
2023/03/07 05:37:05;;;;;;;;;;;;;;;;;;1874765;28;7026;-65
2023/03/07 05:38:02;;;;;;;;;;;;;;;;;;1875309;28;7097;-65
2023/03/07 05:38:59;;;;;;;;;;;;;;;;;;1870376;28;7092;-65
2023/03/07 05:39:57;;;;;;;;;;;;;;;;;;1867714;29;7002;-63
2023/03/07 05:40:55;;;;;;;;;;;;;;;;;;1872372;28;7089;-65
2023/03/07 05:41:52;;;;;;;;;;;;;;;;;;1873564;28;7030;-65
2023/03/07 05:42:49;;;;;;;;;;;;;;;;;;1871992;28;8069;-65
2023/03/07 05:43:46;;;;;;;;;;;;;;;;;;1873682;28;7043;-65
2023/03/07 05:44:44;;;;;;;;;;;;;;;;;;1872191;28;7018;-65
2023/03/07 05:45:41;;;;;;;;;;;;;;;;;;1874907;28;7006;-65
2023/03/07 05:46:39;;;;;;;;;;;;;;;;;;1871444;28;8227;-65
2023/03/07 05:47:37;;;;;;;;;;;;;;;;;;1867975;28;7357;-65
2023/03/07 05:48:35;;;;;;;;;;;;;;;;;;1875450;28;7010;-65
2023/03/07 05:49:32;;;;;;;;;;;;;;;;;;1867310;29;7009;-65
2023/03/07 05:50:29;;;;;;;;;;;;;;;;;;1867819;29;7105;-65
2023/03/07 05:51:27;;;;;;;;;;;;;;;;;;1872821;28;7054;-65
2023/03/07 05:52:24;;;;;;;;;;;;;;;;;;1869548;28;7097;-65
2023/03/07 05:53:22;;;;;;;;;;;;;;;;;;1872117;28;7022;-65
2023/03/07 05:54:19;;;;;;;;;;;;;;;;;;1869790;28;7010;-65
2023/03/07 05:55:17;;;;;;;;;;;;;;;;;;1875120;28;7010;-65
2023/03/07 05:56:14;;;;;;;;;;;;;;;;;;1873382;28;7058;-65
2023/03/07 05:57:11;;;;;;;;;;;;;;;;;;1872556;28;8107;-64
2023/03/07 05:58:09;;;;;;;;;;;;;;;;;;1870738;28;8247;-65
2023/03/07 05:59:06;;;;;;;;;;;;;;;;;;1875131;28;7014;-65
2023/03/07 06:00:05;;;;;;;;;;;;;;;;;;1875067;28;7010;-65
2023/03/07 06:01:03;;;;;;;;;;;;;;;;;;1867975;28;7046;-65
2023/03/07 06:02:00;;;;;;;;;;;;;;;;;;1867405;28;7047;-65
2023/03/07 06:03:00;;;;;;;;;;;;;;;;;;1867581;28;7006;-65
2023/03/07 06:03:57;;;;;;;;;;;;;;;;;;1871208;28;7093;-65
2023/03/07 06:04:54;;;;;;;;;;;;;;;;;;1874658;28;7096;-65
2023/03/07 06:05:52;;;;;;;;;;;;;;;;;;1874902;28;7089;-65
2023/03/07 06:06:49;;;;;;;;;;;;;;;;;;1872188;28;7006;-64
2023/03/07 06:07:48;;;;;;;;;;;;;;;;;;1868368;29;7010;-65
2023/03/07 06:08:45;;;;;;;;;;;;;;;;;;1867917;29;7006;-65
2023/03/07 06:09:43;;;;;;;;;;;;;;;;;;1867735;29;7010;-65
2023/03/07 06:10:41;;;;;;;;;;;;;;;;;;1871321;28;7006;-65
2023/03/07 06:11:39;;;;;;;;;;;;;;;;;;1872668;28;7006;-65
2023/03/07 06:12:36;;;;;;;;;;;;;;;;;;1869190;28;7010;-65
2023/03/07 06:13:34;;;;;;;;;;;;;;;;;;1871016;28;7033;-65
2023/03/07 06:14:31;;;;;;;;;;;;;;;;;;1870699;28;7034;-65
2023/03/07 06:15:28;;;;;;;;;;;;;;;;;;1870905;28;7014;-64
2023/03/07 06:16:26;;;;;;;;;;;;;;;;;;1870735;28;7575;-64
2023/03/07 06:17:23;;;;;;;;;;;;;;;;;;1870980;28;7014;-65
2023/03/07 06:18:22;;;;;;;;;;;;;;;;;;1871465;28;7061;-65
2023/03/07 06:19:19;;;;;;;;;;;;;;;;;;1875405;28;7010;-65
2023/03/07 06:20:19;;;;;;;;;;;;;;;;;;1874541;28;8638;-65
2023/03/07 06:21:17;;;;;;;;;;;;;;;;;;1872905;28;7969;-65
2023/03/07 06:22:14;;;;;;;;;;;;;;;;;;1872695;28;7388;-65
2023/03/07 06:23:12;;;;;;;;;;;;;;;;;;1872343;28;7411;-65
2023/03/07 06:24:09;;;;;;;;;;;;;;;;;;1873964;28;7121;-65
2023/03/07 06:25:08;;;;;;;;;;;;;;;;;;1869898;28;7317;-65
2023/03/07 06:26:06;;;;;;;;;;;;;;;;;;1875462;28;7050;-65
2023/03/07 06:27:04;;;;;;;;;;;;;;;;;;1873157;28;7185;-65
2023/03/07 06:28:01;;;;;;;;;;;;;;;;;;1875023;28;7038;-65
2023/03/07 06:28:59;;;;;;;;;;;;;;;;;;1871761;28;7006;-65
2023/03/07 06:29:57;;;;;;;;;;;;;;;;;;1872582;28;7010;-65
2023/03/07 06:30:54;;;;;;;;;;;;;;;;;;1874432;28;7010;-65
2023/03/07 06:31:51;;;;;;;;;;;;;;;;;;1875243;28;7047;-65
2023/03/07 06:32:49;;;;;;;;;;;;;;;;;;1874638;28;7010;-65
2023/03/07 06:33:47;;;;;;;;;;;;;;;;;;1872886;28;7121;-65
2023/03/07 06:34:44;;;;;;;;;;;;;;;;;;1875020;28;8028;-65
2023/03/07 06:35:42;;;;;;;;;;;;;;;;;;1872673;28;7125;-64
2023/03/07 06:36:40;;;;;;;;;;;;;;;;;;1874331;28;7006;-65
2023/03/07 06:37:37;;;;;;;;;;;;;;;;;;1873323;28;7006;-65
2023/03/07 06:38:34;;;;;;;;;;;;;;;;;;1867460;29;7109;-65
2023/03/07 06:39:32;;;;;;;;;;;;;;;;;;1867805;29;7042;-65
2023/03/07 06:40:29;;;;;;;;;;;;;;;;;;1867379;29;8079;-65
2023/03/07 06:41:26;;;;;;;;;;;;;;;;;;1867441;29;7006;-65
2023/03/07 06:42:24;;;;;;;;;;;;;;;;;;1870536;28;8461;-65
2023/03/07 06:43:21;;;;;;;;;;;;;;;;;;1874888;28;7006;-65
2023/03/07 06:44:19;;;;;;;;;;;;;;;;;;1873263;28;7009;-65